sensor_id;sensor_type;location;lat;lon;timestamp;P1;durP1;ratioP1;P2;durP2;ratioP2
71150;SDS011;59071;42.138;24.768;2023-11-19T00:02:20;1.75;;;1.58;;
71150;SDS011;59071;42.138;24.768;2023-11-19T00:04:46;1.83;;;1.50;;
71150;SDS011;59071;42.138;24.768;2023-11-19T00:07:12;2.65;;;1.80;;
71150;SDS011;59071;42.138;24.768;2023-11-19T00:09:39;2.60;;;1.83;;
71150;SDS011;59071;42.138;24.768;2023-11-19T00:12:04;1.73;;;1.50;;
71150;SDS011;59071;42.138;24.768;2023-11-19T00:14:31;1.95;;;1.50;;
71150;SDS011;59071;42.138;24.768;2023-11-19T00:16:56;2.03;;;1.63;;
71150;SDS011;59071;42.138;24.768;2023-11-19T00:19:22;2.17;;;1.60;;
71150;SDS011;59071;42.138;24.768;2023-11-19T00:21:47;2.10;;;1.40;;
71150;SDS011;59071;42.138;24.768;2023-11-19T00:24:13;1.90;;;1.60;;
71150;SDS011;59071;42.138;24.768;2023-11-19T00:26:41;1.60;;;1.50;;
71150;SDS011;59071;42.138;24.768;2023-11-19T00:29:06;1.90;;;1.50;;
71150;SDS011;59071;42.138;24.768;2023-11-19T00:31:32;2.17;;;1.98;;
71150;SDS011;59071;42.138;24.768;2023-11-19T00:33:57;2.17;;;1.60;;
71150;SDS011;59071;42.138;24.768;2023-11-19T00:36:23;2.10;;;1.70;;
71150;SDS011;59071;42.138;24.768;2023-11-19T00:38:49;2.80;;;1.60;;
71150;SDS011;59071;42.138;24.768;2023-11-19T00:41:15;2.17;;;1.63;;
71150;SDS011;59071;42.138;24.768;2023-11-19T00:43:41;2.70;;;1.80;;
71150;SDS011;59071;42.138;24.768;2023-11-19T00:46:07;1.30;;;1.20;;
71150;SDS011;59071;42.138;24.768;2023-11-19T00:48:32;1.63;;;1.40;;
71150;SDS011;59071;42.138;24.768;2023-11-19T00:50:58;1.73;;;1.30;;
71150;SDS011;59071;42.138;24.768;2023-11-19T00:53:23;2.03;;;1.60;;
71150;SDS011;59071;42.138;24.768;2023-11-19T00:55:48;2.22;;;1.60;;
71150;SDS011;59071;42.138;24.768;2023-11-19T00:58:14;2.08;;;1.60;;
71150;SDS011;59071;42.138;24.768;2023-11-19T01:00:39;1.95;;;1.42;;
71150;SDS011;59071;42.138;24.768;2023-11-19T01:03:05;1.60;;;1.48;;
71150;SDS011;59071;42.138;24.768;2023-11-19T01:05:32;1.38;;;1.23;;
71150;SDS011;59071;42.138;24.768;2023-11-19T01:07:58;1.65;;;1.30;;
71150;SDS011;59071;42.138;24.768;2023-11-19T01:10:23;1.52;;;1.42;;
71150;SDS011;59071;42.138;24.768;2023-11-19T01:12:49;2.72;;;1.40;;
71150;SDS011;59071;42.138;24.768;2023-11-19T01:15:15;1.77;;;1.50;;
71150;SDS011;59071;42.138;24.768;2023-11-19T01:17:40;2.25;;;1.50;;
71150;SDS011;59071;42.138;24.768;2023-11-19T01:20:06;2.45;;;1.50;;
71150;SDS011;59071;42.138;24.768;2023-11-19T01:22:31;2.17;;;1.83;;
71150;SDS011;59071;42.138;24.768;2023-11-19T01:24:57;2.28;;;1.70;;
71150;SDS011;59071;42.138;24.768;2023-11-19T01:27:23;3.03;;;1.92;;
71150;SDS011;59071;42.138;24.768;2023-11-19T01:29:49;1.85;;;1.52;;
71150;SDS011;59071;42.138;24.768;2023-11-19T01:32:15;2.25;;;1.60;;
71150;SDS011;59071;42.138;24.768;2023-11-19T01:34:40;3.00;;;1.45;;
71150;SDS011;59071;42.138;24.768;2023-11-19T01:37:06;1.73;;;1.33;;
71150;SDS011;59071;42.138;24.768;2023-11-19T01:39:34;1.55;;;1.45;;
71150;SDS011;59071;42.138;24.768;2023-11-19T01:41:59;2.10;;;1.50;;
71150;SDS011;59071;42.138;24.768;2023-11-19T01:44:24;2.53;;;1.60;;
71150;SDS011;59071;42.138;24.768;2023-11-19T01:46:50;1.60;;;1.50;;
71150;SDS011;59071;42.138;24.768;2023-11-19T01:49:16;1.67;;;1.20;;
71150;SDS011;59071;42.138;24.768;2023-11-19T01:51:43;2.00;;;1.60;;
71150;SDS011;59071;42.138;24.768;2023-11-19T01:54:09;1.70;;;1.48;;
71150;SDS011;59071;42.138;24.768;2023-11-19T01:56:36;2.15;;;1.50;;
71150;SDS011;59071;42.138;24.768;2023-11-19T01:59:05;1.75;;;1.40;;
71150;SDS011;59071;42.138;24.768;2023-11-19T02:01:32;2.03;;;1.70;;
71150;SDS011;59071;42.138;24.768;2023-11-19T02:03:59;1.90;;;1.60;;
71150;SDS011;59071;42.138;24.768;2023-11-19T02:06:26;2.28;;;1.80;;
71150;SDS011;59071;42.138;24.768;2023-11-19T02:08:53;2.20;;;1.75;;
71150;SDS011;59071;42.138;24.768;2023-11-19T02:11:19;2.17;;;1.70;;
71150;SDS011;59071;42.138;24.768;2023-11-19T02:13:44;1.88;;;1.38;;
71150;SDS011;59071;42.138;24.768;2023-11-19T02:16:09;3.05;;;1.88;;
71150;SDS011;59071;42.138;24.768;2023-11-19T02:18:35;2.53;;;1.80;;
71150;SDS011;59071;42.138;24.768;2023-11-19T02:21:01;2.30;;;1.60;;
71150;SDS011;59071;42.138;24.768;2023-11-19T02:23:27;2.63;;;1.73;;
71150;SDS011;59071;42.138;24.768;2023-11-19T02:26:05;2.05;;;1.58;;
71150;SDS011;59071;42.138;24.768;2023-11-19T02:28:45;1.90;;;1.70;;
71150;SDS011;59071;42.138;24.768;2023-11-19T02:31:10;1.50;;;1.40;;
71150;SDS011;59071;42.138;24.768;2023-11-19T02:33:39;1.90;;;1.45;;
71150;SDS011;59071;42.138;24.768;2023-11-19T02:36:05;2.30;;;1.92;;
71150;SDS011;59071;42.138;24.768;2023-11-19T02:38:32;2.30;;;1.70;;
71150;SDS011;59071;42.138;24.768;2023-11-19T02:40:58;1.67;;;1.50;;
71150;SDS011;59071;42.138;24.768;2023-11-19T02:43:23;2.38;;;1.65;;
71150;SDS011;59071;42.138;24.768;2023-11-19T02:45:49;2.20;;;1.80;;
71150;SDS011;59071;42.138;24.768;2023-11-19T02:48:14;2.53;;;1.88;;
71150;SDS011;59071;42.138;24.768;2023-11-19T02:50:41;2.95;;;1.70;;
71150;SDS011;59071;42.138;24.768;2023-11-19T02:53:07;2.10;;;1.90;;
71150;SDS011;59071;42.138;24.768;2023-11-19T02:55:33;1.90;;;1.70;;
71150;SDS011;59071;42.138;24.768;2023-11-19T03:00:33;3.58;;;1.90;;
71150;SDS011;59071;42.138;24.768;2023-11-19T03:03:02;2.80;;;1.80;;
71150;SDS011;59071;42.138;24.768;2023-11-19T03:05:43;2.60;;;2.00;;
71150;SDS011;59071;42.138;24.768;2023-11-19T03:08:09;2.10;;;1.70;;
71150;SDS011;59071;42.138;24.768;2023-11-19T03:10:35;1.80;;;1.60;;
71150;SDS011;59071;42.138;24.768;2023-11-19T03:13:01;2.75;;;1.80;;
71150;SDS011;59071;42.138;24.768;2023-11-19T03:15:27;2.20;;;1.63;;
71150;SDS011;59071;42.138;24.768;2023-11-19T03:17:52;2.42;;;1.95;;
71150;SDS011;59071;42.138;24.768;2023-11-19T03:20:18;1.92;;;1.73;;
71150;SDS011;59071;42.138;24.768;2023-11-19T03:22:43;4.75;;;2.00;;
71150;SDS011;59071;42.138;24.768;2023-11-19T03:25:09;3.65;;;2.10;;
71150;SDS011;59071;42.138;24.768;2023-11-19T03:27:35;2.47;;;2.00;;
71150;SDS011;59071;42.138;24.768;2023-11-19T03:30:02;2.20;;;2.00;;
71150;SDS011;59071;42.138;24.768;2023-11-19T03:32:29;3.65;;;2.00;;
71150;SDS011;59071;42.138;24.768;2023-11-19T03:34:56;2.42;;;1.90;;
71150;SDS011;59071;42.138;24.768;2023-11-19T03:37:21;2.40;;;1.92;;
71150;SDS011;59071;42.138;24.768;2023-11-19T03:39:47;2.60;;;2.25;;
71150;SDS011;59071;42.138;24.768;2023-11-19T03:42:12;2.47;;;2.10;;
71150;SDS011;59071;42.138;24.768;2023-11-19T03:44:38;2.67;;;2.28;;
71150;SDS011;59071;42.138;24.768;2023-11-19T03:47:03;2.85;;;2.05;;
71150;SDS011;59071;42.138;24.768;2023-11-19T03:49:29;3.00;;;2.20;;
71150;SDS011;59071;42.138;24.768;2023-11-19T03:51:54;4.18;;;2.20;;
71150;SDS011;59071;42.138;24.768;2023-11-19T03:54:20;2.95;;;2.20;;
71150;SDS011;59071;42.138;24.768;2023-11-19T03:56:48;2.45;;;2.00;;
71150;SDS011;59071;42.138;24.768;2023-11-19T03:59:13;2.50;;;2.30;;
71150;SDS011;59071;42.138;24.768;2023-11-19T04:01:40;2.80;;;2.28;;
71150;SDS011;59071;42.138;24.768;2023-11-19T04:04:06;2.63;;;2.20;;
71150;SDS011;59071;42.138;24.768;2023-11-19T04:06:31;2.90;;;2.10;;
71150;SDS011;59071;42.138;24.768;2023-11-19T04:08:57;2.72;;;2.17;;
71150;SDS011;59071;42.138;24.768;2023-11-19T04:11:22;4.18;;;2.10;;
71150;SDS011;59071;42.138;24.768;2023-11-19T04:13:47;2.45;;;2.00;;
71150;SDS011;59071;42.138;24.768;2023-11-19T04:16:13;2.58;;;1.95;;
71150;SDS011;59071;42.138;24.768;2023-11-19T04:18:39;3.40;;;2.30;;
71150;SDS011;59071;42.138;24.768;2023-11-19T04:21:06;2.88;;;2.05;;
71150;SDS011;59071;42.138;24.768;2023-11-19T04:23:32;3.42;;;2.40;;
71150;SDS011;59071;42.138;24.768;2023-11-19T04:25:57;2.28;;;1.90;;
71150;SDS011;59071;42.138;24.768;2023-11-19T04:28:23;2.17;;;1.80;;
71150;SDS011;59071;42.138;24.768;2023-11-19T04:30:52;2.67;;;2.03;;
71150;SDS011;59071;42.138;24.768;2023-11-19T04:33:17;2.95;;;2.05;;
71150;SDS011;59071;42.138;24.768;2023-11-19T04:35:42;2.22;;;1.92;;
71150;SDS011;59071;42.138;24.768;2023-11-19T04:38:08;3.55;;;2.50;;
71150;SDS011;59071;42.138;24.768;2023-11-19T04:40:33;2.55;;;2.13;;
71150;SDS011;59071;42.138;24.768;2023-11-19T04:42:59;2.70;;;2.20;;
71150;SDS011;59071;42.138;24.768;2023-11-19T04:45:24;3.30;;;2.13;;
71150;SDS011;59071;42.138;24.768;2023-11-19T04:47:50;2.40;;;2.20;;
71150;SDS011;59071;42.138;24.768;2023-11-19T04:50:15;3.40;;;2.60;;
71150;SDS011;59071;42.138;24.768;2023-11-19T04:52:41;2.83;;;2.30;;
71150;SDS011;59071;42.138;24.768;2023-11-19T04:55:09;3.17;;;2.50;;
71150;SDS011;59071;42.138;24.768;2023-11-19T04:57:36;3.28;;;2.38;;
71150;SDS011;59071;42.138;24.768;2023-11-19T05:00:02;2.88;;;2.30;;
71150;SDS011;59071;42.138;24.768;2023-11-19T05:02:30;2.17;;;1.88;;
71150;SDS011;59071;42.138;24.768;2023-11-19T05:04:55;2.92;;;2.10;;
71150;SDS011;59071;42.138;24.768;2023-11-19T05:07:20;3.08;;;2.33;;
71150;SDS011;59071;42.138;24.768;2023-11-19T05:09:46;2.72;;;2.05;;
71150;SDS011;59071;42.138;24.768;2023-11-19T05:12:11;4.00;;;2.30;;
71150;SDS011;59071;42.138;24.768;2023-11-19T05:14:37;5.88;;;2.45;;
71150;SDS011;59071;42.138;24.768;2023-11-19T05:17:03;4.72;;;2.25;;
71150;SDS011;59071;42.138;24.768;2023-11-19T05:19:29;2.53;;;1.90;;
71150;SDS011;59071;42.138;24.768;2023-11-19T05:21:54;2.92;;;2.10;;
71150;SDS011;59071;42.138;24.768;2023-11-19T05:24:19;3.13;;;2.30;;
71150;SDS011;59071;42.138;24.768;2023-11-19T05:26:45;2.85;;;2.10;;
71150;SDS011;59071;42.138;24.768;2023-11-19T05:29:10;2.75;;;2.10;;
71150;SDS011;59071;42.138;24.768;2023-11-19T05:31:36;2.92;;;2.25;;
71150;SDS011;59071;42.138;24.768;2023-11-19T05:34:01;4.85;;;2.08;;
71150;SDS011;59071;42.138;24.768;2023-11-19T05:36:26;2.95;;;2.30;;
71150;SDS011;59071;42.138;24.768;2023-11-19T05:38:53;2.80;;;2.50;;
71150;SDS011;59071;42.138;24.768;2023-11-19T05:41:19;4.03;;;2.28;;
71150;SDS011;59071;42.138;24.768;2023-11-19T05:43:44;6.38;;;2.58;;
71150;SDS011;59071;42.138;24.768;2023-11-19T05:46:10;2.97;;;2.33;;
71150;SDS011;59071;42.138;24.768;2023-11-19T05:48:35;3.63;;;2.40;;
71150;SDS011;59071;42.138;24.768;2023-11-19T05:51:01;3.28;;;2.35;;
71150;SDS011;59071;42.138;24.768;2023-11-19T05:53:26;3.63;;;2.90;;
71150;SDS011;59071;42.138;24.768;2023-11-19T05:55:52;3.45;;;2.35;;
71150;SDS011;59071;42.138;24.768;2023-11-19T05:58:26;4.00;;;2.60;;
71150;SDS011;59071;42.138;24.768;2023-11-19T06:00:57;2.85;;;2.40;;
71150;SDS011;59071;42.138;24.768;2023-11-19T06:03:22;2.72;;;2.33;;
71150;SDS011;59071;42.138;24.768;2023-11-19T06:05:48;3.00;;;1.98;;
71150;SDS011;59071;42.138;24.768;2023-11-19T06:08:14;3.22;;;2.42;;
71150;SDS011;59071;42.138;24.768;2023-11-19T06:10:40;3.03;;;2.03;;
71150;SDS011;59071;42.138;24.768;2023-11-19T06:13:06;2.80;;;2.08;;
71150;SDS011;59071;42.138;24.768;2023-11-19T06:15:32;4.60;;;2.30;;
71150;SDS011;59071;42.138;24.768;2023-11-19T06:17:58;2.35;;;1.83;;
71150;SDS011;59071;42.138;24.768;2023-11-19T06:20:26;3.35;;;2.50;;
71150;SDS011;59071;42.138;24.768;2023-11-19T06:22:53;3.13;;;2.20;;
71150;SDS011;59071;42.138;24.768;2023-11-19T06:25:19;3.80;;;2.85;;
71150;SDS011;59071;42.138;24.768;2023-11-19T06:27:44;4.32;;;2.33;;
71150;SDS011;59071;42.138;24.768;2023-11-19T06:30:10;3.47;;;2.78;;
71150;SDS011;59071;42.138;24.768;2023-11-19T06:32:36;3.72;;;2.58;;
71150;SDS011;59071;42.138;24.768;2023-11-19T06:35:02;2.97;;;2.30;;
71150;SDS011;59071;42.138;24.768;2023-11-19T06:37:29;3.17;;;2.40;;
71150;SDS011;59071;42.138;24.768;2023-11-19T06:39:55;3.75;;;2.85;;
71150;SDS011;59071;42.138;24.768;2023-11-19T06:42:21;2.63;;;2.10;;
71150;SDS011;59071;42.138;24.768;2023-11-19T06:44:46;2.50;;;2.17;;
71150;SDS011;59071;42.138;24.768;2023-11-19T06:47:11;2.90;;;2.20;;
71150;SDS011;59071;42.138;24.768;2023-11-19T06:49:37;3.83;;;2.20;;
71150;SDS011;59071;42.138;24.768;2023-11-19T06:52:02;2.75;;;2.22;;
71150;SDS011;59071;42.138;24.768;2023-11-19T06:54:29;2.88;;;2.13;;
71150;SDS011;59071;42.138;24.768;2023-11-19T06:56:55;2.67;;;2.05;;
71150;SDS011;59071;42.138;24.768;2023-11-19T06:59:22;3.92;;;2.20;;
71150;SDS011;59071;42.138;24.768;2023-11-19T07:01:47;2.72;;;2.15;;
71150;SDS011;59071;42.138;24.768;2023-11-19T07:04:13;2.42;;;1.90;;
71150;SDS011;59071;42.138;24.768;2023-11-19T07:06:38;3.42;;;2.20;;
71150;SDS011;59071;42.138;24.768;2023-11-19T07:09:06;3.13;;;2.25;;
71150;SDS011;59071;42.138;24.768;2023-11-19T07:11:38;2.40;;;2.00;;
71150;SDS011;59071;42.138;24.768;2023-11-19T07:14:04;4.35;;;2.00;;
71150;SDS011;59071;42.138;24.768;2023-11-19T07:16:31;3.88;;;2.33;;
71150;SDS011;59071;42.138;24.768;2023-11-19T07:18:57;2.78;;;2.20;;
71150;SDS011;59071;42.138;24.768;2023-11-19T07:21:23;2.60;;;2.30;;
71150;SDS011;59071;42.138;24.768;2023-11-19T07:23:49;2.65;;;2.15;;
71150;SDS011;59071;42.138;24.768;2023-11-19T07:26:15;2.58;;;2.13;;
71150;SDS011;59071;42.138;24.768;2023-11-19T07:28:40;2.40;;;2.20;;
71150;SDS011;59071;42.138;24.768;2023-11-19T07:31:06;3.40;;;2.50;;
71150;SDS011;59071;42.138;24.768;2023-11-19T07:33:34;3.60;;;2.30;;
71150;SDS011;59071;42.138;24.768;2023-11-19T07:35:59;2.83;;;2.10;;
71150;SDS011;59071;42.138;24.768;2023-11-19T07:38:25;3.42;;;2.22;;
71150;SDS011;59071;42.138;24.768;2023-11-19T07:40:50;4.15;;;2.28;;
71150;SDS011;59071;42.138;24.768;2023-11-19T07:43:15;3.17;;;2.13;;
71150;SDS011;59071;42.138;24.768;2023-11-19T07:45:41;3.92;;;1.83;;
71150;SDS011;59071;42.138;24.768;2023-11-19T07:48:09;4.03;;;2.10;;
71150;SDS011;59071;42.138;24.768;2023-11-19T07:50:34;4.47;;;2.13;;
71150;SDS011;59071;42.138;24.768;2023-11-19T07:52:59;2.97;;;2.15;;
71150;SDS011;59071;42.138;24.768;2023-11-19T07:55:25;6.82;;;2.80;;
71150;SDS011;59071;42.138;24.768;2023-11-19T07:57:52;2.47;;;1.90;;
71150;SDS011;59071;42.138;24.768;2023-11-19T08:00:17;2.83;;;1.80;;
71150;SDS011;59071;42.138;24.768;2023-11-19T08:02:44;4.13;;;2.00;;
71150;SDS011;59071;42.138;24.768;2023-11-19T08:05:10;2.85;;;2.00;;
71150;SDS011;59071;42.138;24.768;2023-11-19T08:07:36;3.10;;;1.90;;
71150;SDS011;59071;42.138;24.768;2023-11-19T08:10:02;2.88;;;2.05;;
71150;SDS011;59071;42.138;24.768;2023-11-19T08:12:27;4.75;;;2.33;;
71150;SDS011;59071;42.138;24.768;2023-11-19T08:14:52;2.78;;;2.20;;
71150;SDS011;59071;42.138;24.768;2023-11-19T08:17:18;3.15;;;2.10;;
71150;SDS011;59071;42.138;24.768;2023-11-19T08:19:43;3.17;;;2.08;;
71150;SDS011;59071;42.138;24.768;2023-11-19T08:22:09;2.20;;;1.77;;
71150;SDS011;59071;42.138;24.768;2023-11-19T08:24:35;2.50;;;2.00;;
71150;SDS011;59071;42.138;24.768;2023-11-19T08:27:00;4.55;;;2.00;;
71150;SDS011;59071;42.138;24.768;2023-11-19T08:29:26;2.65;;;2.03;;
71150;SDS011;59071;42.138;24.768;2023-11-19T08:31:52;3.08;;;2.30;;
71150;SDS011;59071;42.138;24.768;2023-11-19T08:34:18;4.15;;;2.33;;
71150;SDS011;59071;42.138;24.768;2023-11-19T08:36:43;4.32;;;2.05;;
71150;SDS011;59071;42.138;24.768;2023-11-19T08:39:09;4.28;;;2.15;;
71150;SDS011;59071;42.138;24.768;2023-11-19T08:41:34;3.40;;;2.50;;
71150;SDS011;59071;42.138;24.768;2023-11-19T08:44:00;3.42;;;2.40;;
71150;SDS011;59071;42.138;24.768;2023-11-19T08:46:25;4.65;;;2.20;;
71150;SDS011;59071;42.138;24.768;2023-11-19T08:48:51;3.67;;;2.15;;
71150;SDS011;59071;42.138;24.768;2023-11-19T08:51:16;3.22;;;2.00;;
71150;SDS011;59071;42.138;24.768;2023-11-19T08:53:42;3.63;;;1.98;;
71150;SDS011;59071;42.138;24.768;2023-11-19T08:56:07;3.00;;;2.05;;
71150;SDS011;59071;42.138;24.768;2023-11-19T08:58:33;3.15;;;2.28;;
71150;SDS011;59071;42.138;24.768;2023-11-19T09:00:58;7.15;;;2.40;;
71150;SDS011;59071;42.138;24.768;2023-11-19T09:03:23;3.00;;;2.10;;
71150;SDS011;59071;42.138;24.768;2023-11-19T09:05:51;4.97;;;2.15;;
71150;SDS011;59071;42.138;24.768;2023-11-19T09:08:17;2.42;;;1.90;;
71150;SDS011;59071;42.138;24.768;2023-11-19T09:10:42;3.17;;;1.95;;
71150;SDS011;59071;42.138;24.768;2023-11-19T09:13:08;3.15;;;2.10;;
71150;SDS011;59071;42.138;24.768;2023-11-19T09:15:33;2.50;;;1.90;;
71150;SDS011;59071;42.138;24.768;2023-11-19T09:17:58;2.63;;;2.00;;
71150;SDS011;59071;42.138;24.768;2023-11-19T09:20:24;4.45;;;2.50;;
71150;SDS011;59071;42.138;24.768;2023-11-19T09:22:49;4.80;;;2.17;;
71150;SDS011;59071;42.138;24.768;2023-11-19T09:25:16;5.05;;;2.15;;
71150;SDS011;59071;42.138;24.768;2023-11-19T09:27:42;4.25;;;1.90;;
71150;SDS011;59071;42.138;24.768;2023-11-19T09:30:08;5.05;;;2.05;;
71150;SDS011;59071;42.138;24.768;2023-11-19T09:32:34;2.42;;;2.00;;
71150;SDS011;59071;42.138;24.768;2023-11-19T09:34:59;3.10;;;2.40;;
71150;SDS011;59071;42.138;24.768;2023-11-19T09:37:25;2.65;;;2.10;;
71150;SDS011;59071;42.138;24.768;2023-11-19T09:39:51;2.97;;;2.10;;
71150;SDS011;59071;42.138;24.768;2023-11-19T09:42:18;2.67;;;1.85;;
71150;SDS011;59071;42.138;24.768;2023-11-19T09:44:44;3.55;;;2.03;;
71150;SDS011;59071;42.138;24.768;2023-11-19T09:47:11;3.10;;;1.85;;
71150;SDS011;59071;42.138;24.768;2023-11-19T09:49:37;2.60;;;2.10;;
71150;SDS011;59071;42.138;24.768;2023-11-19T09:52:04;5.60;;;2.30;;
71150;SDS011;59071;42.138;24.768;2023-11-19T09:54:29;2.95;;;2.22;;
71150;SDS011;59071;42.138;24.768;2023-11-19T09:56:55;2.75;;;2.00;;
71150;SDS011;59071;42.138;24.768;2023-11-19T09:59:29;2.58;;;2.10;;
71150;SDS011;59071;42.138;24.768;2023-11-19T10:01:55;2.30;;;1.90;;
71150;SDS011;59071;42.138;24.768;2023-11-19T10:04:21;4.63;;;1.92;;
71150;SDS011;59071;42.138;24.768;2023-11-19T10:06:48;3.90;;;2.20;;
71150;SDS011;59071;42.138;24.768;2023-11-19T10:09:15;2.83;;;1.67;;
71150;SDS011;59071;42.138;24.768;2023-11-19T10:11:40;2.65;;;1.98;;
71150;SDS011;59071;42.138;24.768;2023-11-19T10:14:05;2.58;;;2.00;;
71150;SDS011;59071;42.138;24.768;2023-11-19T10:16:31;3.13;;;2.30;;
71150;SDS011;59071;42.138;24.768;2023-11-19T10:18:59;2.67;;;2.08;;
71150;SDS011;59071;42.138;24.768;2023-11-19T10:21:25;3.35;;;2.00;;
71150;SDS011;59071;42.138;24.768;2023-11-19T10:23:53;2.67;;;2.10;;
71150;SDS011;59071;42.138;24.768;2023-11-19T10:26:21;2.20;;;2.00;;
71150;SDS011;59071;42.138;24.768;2023-11-19T10:28:47;2.88;;;2.03;;
71150;SDS011;59071;42.138;24.768;2023-11-19T10:31:14;3.05;;;2.40;;
71150;SDS011;59071;42.138;24.768;2023-11-19T10:33:46;2.88;;;2.28;;
71150;SDS011;59071;42.138;24.768;2023-11-19T10:36:12;9.10;;;2.33;;
71150;SDS011;59071;42.138;24.768;2023-11-19T10:38:38;3.55;;;2.15;;
71150;SDS011;59071;42.138;24.768;2023-11-19T10:41:05;2.55;;;1.90;;
71150;SDS011;59071;42.138;24.768;2023-11-19T10:43:30;3.60;;;2.50;;
71150;SDS011;59071;42.138;24.768;2023-11-19T10:46:11;2.83;;;2.17;;
71150;SDS011;59071;42.138;24.768;2023-11-19T10:48:39;3.08;;;2.30;;
71150;SDS011;59071;42.138;24.768;2023-11-19T10:51:06;3.03;;;2.50;;
71150;SDS011;59071;42.138;24.768;2023-11-19T10:53:36;3.00;;;2.28;;
71150;SDS011;59071;42.138;24.768;2023-11-19T10:56:06;6.55;;;2.20;;
71150;SDS011;59071;42.138;24.768;2023-11-19T10:58:35;2.83;;;2.25;;
71150;SDS011;59071;42.138;24.768;2023-11-19T11:01:06;3.10;;;1.98;;
71150;SDS011;59071;42.138;24.768;2023-11-19T11:03:39;2.53;;;2.10;;
71150;SDS011;59071;42.138;24.768;2023-11-19T11:06:05;3.25;;;2.40;;
71150;SDS011;59071;42.138;24.768;2023-11-19T11:08:31;3.03;;;2.15;;
71150;SDS011;59071;42.138;24.768;2023-11-19T11:10:57;3.45;;;2.50;;
71150;SDS011;59071;42.138;24.768;2023-11-19T11:13:23;2.75;;;2.22;;
71150;SDS011;59071;42.138;24.768;2023-11-19T11:15:50;3.15;;;2.40;;
71150;SDS011;59071;42.138;24.768;2023-11-19T11:18:16;3.00;;;2.20;;
71150;SDS011;59071;42.138;24.768;2023-11-19T11:20:46;2.90;;;2.03;;
71150;SDS011;59071;42.138;24.768;2023-11-19T11:31:00;3.55;;;2.28;;
71150;SDS011;59071;42.138;24.768;2023-11-19T11:36:21;2.47;;;2.10;;
71150;SDS011;59071;42.138;24.768;2023-11-19T11:38:48;3.05;;;2.30;;
71150;SDS011;59071;42.138;24.768;2023-11-19T11:41:18;2.10;;;1.88;;
71150;SDS011;59071;42.138;24.768;2023-11-19T11:43:54;2.90;;;2.40;;
71150;SDS011;59071;42.138;24.768;2023-11-19T11:49:03;2.53;;;2.25;;
71150;SDS011;59071;42.138;24.768;2023-11-19T11:54:10;3.00;;;2.30;;
71150;SDS011;59071;42.138;24.768;2023-11-19T11:56:39;3.40;;;2.47;;
71150;SDS011;59071;42.138;24.768;2023-11-19T11:59:08;2.20;;;2.00;;
71150;SDS011;59071;42.138;24.768;2023-11-19T12:01:57;3.67;;;2.45;;
71150;SDS011;59071;42.138;24.768;2023-11-19T12:07:04;2.30;;;2.10;;
71150;SDS011;59071;42.138;24.768;2023-11-19T12:09:51;2.58;;;2.30;;
71150;SDS011;59071;42.138;24.768;2023-11-19T12:12:32;4.28;;;2.40;;
71150;SDS011;59071;42.138;24.768;2023-11-19T12:20:17;4.72;;;2.20;;
71150;SDS011;59071;42.138;24.768;2023-11-19T12:22:44;3.63;;;2.50;;
71150;SDS011;59071;42.138;24.768;2023-11-19T12:25:11;2.80;;;2.30;;
71150;SDS011;59071;42.138;24.768;2023-11-19T12:27:41;3.40;;;2.60;;
71150;SDS011;59071;42.138;24.768;2023-11-19T12:30:07;2.40;;;2.13;;
71150;SDS011;59071;42.138;24.768;2023-11-19T12:32:40;3.45;;;2.60;;
71150;SDS011;59071;42.138;24.768;2023-11-19T12:35:07;3.28;;;2.60;;
71150;SDS011;59071;42.138;24.768;2023-11-19T12:37:38;4.43;;;2.67;;
71150;SDS011;59071;42.138;24.768;2023-11-19T12:40:14;4.03;;;2.80;;
71150;SDS011;59071;42.138;24.768;2023-11-19T12:42:45;3.33;;;2.38;;
71150;SDS011;59071;42.138;24.768;2023-11-19T12:45:11;3.55;;;2.63;;
71150;SDS011;59071;42.138;24.768;2023-11-19T12:47:37;2.95;;;2.63;;
71150;SDS011;59071;42.138;24.768;2023-11-19T12:50:04;4.90;;;2.90;;
71150;SDS011;59071;42.138;24.768;2023-11-19T12:52:30;4.82;;;2.80;;
71150;SDS011;59071;42.138;24.768;2023-11-19T12:54:55;3.70;;;2.95;;
71150;SDS011;59071;42.138;24.768;2023-11-19T12:57:35;4.95;;;2.63;;
71150;SDS011;59071;42.138;24.768;2023-11-19T13:00:07;3.85;;;3.00;;
71150;SDS011;59071;42.138;24.768;2023-11-19T13:02:46;4.97;;;3.00;;
71150;SDS011;59071;42.138;24.768;2023-11-19T13:07:59;4.22;;;2.53;;
71150;SDS011;59071;42.138;24.768;2023-11-19T13:10:26;3.22;;;2.40;;
71150;SDS011;59071;42.138;24.768;2023-11-19T13:13:02;3.40;;;2.70;;
71150;SDS011;59071;42.138;24.768;2023-11-19T13:15:27;3.83;;;2.55;;
71150;SDS011;59071;42.138;24.768;2023-11-19T13:17:53;3.22;;;2.60;;
71150;SDS011;59071;42.138;24.768;2023-11-19T13:20:19;3.45;;;2.85;;
71150;SDS011;59071;42.138;24.768;2023-11-19T13:22:59;3.85;;;2.70;;
71150;SDS011;59071;42.138;24.768;2023-11-19T13:25:28;4.43;;;2.72;;
71150;SDS011;59071;42.138;24.768;2023-11-19T13:27:55;3.50;;;2.60;;
71150;SDS011;59071;42.138;24.768;2023-11-19T13:30:21;3.40;;;2.65;;
71150;SDS011;59071;42.138;24.768;2023-11-19T13:32:47;4.03;;;2.88;;
71150;SDS011;59071;42.138;24.768;2023-11-19T13:35:13;3.85;;;2.70;;
71150;SDS011;59071;42.138;24.768;2023-11-19T13:37:39;4.03;;;2.63;;
71150;SDS011;59071;42.138;24.768;2023-11-19T13:40:08;3.38;;;2.60;;
71150;SDS011;59071;42.138;24.768;2023-11-19T13:42:37;3.65;;;2.75;;
71150;SDS011;59071;42.138;24.768;2023-11-19T13:45:10;4.55;;;2.85;;
71150;SDS011;59071;42.138;24.768;2023-11-19T13:47:37;4.18;;;2.92;;
71150;SDS011;59071;42.138;24.768;2023-11-19T13:50:06;3.53;;;2.80;;
71150;SDS011;59071;42.138;24.768;2023-11-19T13:55:08;4.85;;;2.70;;
71150;SDS011;59071;42.138;24.768;2023-11-19T13:57:35;3.33;;;2.60;;
71150;SDS011;59071;42.138;24.768;2023-11-19T14:00:05;3.47;;;2.97;;
71150;SDS011;59071;42.138;24.768;2023-11-19T14:02:35;4.43;;;2.80;;
71150;SDS011;59071;42.138;24.768;2023-11-19T14:05:01;3.50;;;2.78;;
71150;SDS011;59071;42.138;24.768;2023-11-19T14:07:26;4.28;;;3.20;;
71150;SDS011;59071;42.138;24.768;2023-11-19T14:09:52;3.72;;;2.92;;
71150;SDS011;59071;42.138;24.768;2023-11-19T14:12:18;4.07;;;2.70;;
71150;SDS011;59071;42.138;24.768;2023-11-19T14:14:43;3.88;;;3.05;;
71150;SDS011;59071;42.138;24.768;2023-11-19T14:17:09;4.88;;;2.92;;
71150;SDS011;59071;42.138;24.768;2023-11-19T14:19:36;3.92;;;2.70;;
71150;SDS011;59071;42.138;24.768;2023-11-19T14:22:01;5.70;;;2.88;;
71150;SDS011;59071;42.138;24.768;2023-11-19T14:24:27;4.70;;;3.20;;
71150;SDS011;59071;42.138;24.768;2023-11-19T14:26:53;4.47;;;2.90;;
71150;SDS011;59071;42.138;24.768;2023-11-19T14:29:18;3.67;;;3.03;;
71150;SDS011;59071;42.138;24.768;2023-11-19T14:31:43;4.90;;;3.05;;
71150;SDS011;59071;42.138;24.768;2023-11-19T14:34:09;4.15;;;3.10;;
71150;SDS011;59071;42.138;24.768;2023-11-19T14:36:34;5.40;;;3.25;;
71150;SDS011;59071;42.138;24.768;2023-11-19T14:39:00;4.60;;;2.97;;
71150;SDS011;59071;42.138;24.768;2023-11-19T14:41:25;4.47;;;2.90;;
71150;SDS011;59071;42.138;24.768;2023-11-19T14:43:51;3.97;;;2.95;;
71150;SDS011;59071;42.138;24.768;2023-11-19T14:46:16;4.93;;;3.10;;
71150;SDS011;59071;42.138;24.768;2023-11-19T14:48:42;3.92;;;3.00;;
71150;SDS011;59071;42.138;24.768;2023-11-19T14:51:07;3.63;;;2.85;;
71150;SDS011;59071;42.138;24.768;2023-11-19T14:53:33;4.55;;;2.83;;
71150;SDS011;59071;42.138;24.768;2023-11-19T14:55:59;3.50;;;2.63;;
71150;SDS011;59071;42.138;24.768;2023-11-19T14:58:25;3.28;;;2.60;;
71150;SDS011;59071;42.138;24.768;2023-11-19T15:00:51;3.40;;;2.50;;
71150;SDS011;59071;42.138;24.768;2023-11-19T15:03:16;5.30;;;2.90;;